createdAt,value
2018-11-11T00:00:46.001Z,19.46
2018-11-11T00:01:46.146Z,19.47
2018-11-11T00:02:46.179Z,19.47
2018-11-11T00:03:47.128Z,19.45
2018-11-11T00:04:45.679Z,19.49
2018-11-11T00:05:45.528Z,19.47
2018-11-11T00:06:45.630Z,19.47
2018-11-11T00:07:45.881Z,19.45
2018-11-11T00:08:45.441Z,19.45
2018-11-11T00:09:45.728Z,19.45
2018-11-11T00:10:45.740Z,19.43
2018-11-11T00:11:45.655Z,19.45
2018-11-11T00:12:45.664Z,19.45
2018-11-11T00:13:45.636Z,19.43
2018-11-11T00:14:45.971Z,19.43
2018-11-11T00:15:45.713Z,19.43
2018-11-11T00:16:45.502Z,19.46
2018-11-11T00:17:45.641Z,19.43
2018-11-11T00:18:45.779Z,19.45
2018-11-11T00:19:45.588Z,19.43
2018-11-11T00:20:45.750Z,19.42
2018-11-11T00:21:47.066Z,19.45
2018-11-11T00:22:45.682Z,19.43
2018-11-11T00:23:45.515Z,19.42
2018-11-11T00:24:45.629Z,19.43
2018-11-11T00:25:45.497Z,19.46
2018-11-11T00:26:45.484Z,19.43
2018-11-11T00:27:45.777Z,19.43
2018-11-11T00:28:46.963Z,19.43
2018-11-11T00:29:45.730Z,19.42
2018-11-11T00:30:45.747Z,19.42
2018-11-11T00:31:45.764Z,19.42
2018-11-11T00:32:46.110Z,19.43
2018-11-11T00:33:45.571Z,19.46
2018-11-11T00:34:45.760Z,19.45
2018-11-11T00:35:45.485Z,19.42
2018-11-11T00:36:46.077Z,19.42
2018-11-11T00:37:45.840Z,19.43
2018-11-11T00:38:45.967Z,19.42
2018-11-11T00:39:46.960Z,19.42
2018-11-11T00:40:45.769Z,19.43
2018-11-11T00:41:45.600Z,19.42
2018-11-11T00:42:45.833Z,19.4
2018-11-11T00:43:45.755Z,19.4
2018-11-11T00:44:45.578Z,19.42
2018-11-11T00:45:45.625Z,19.42
2018-11-11T00:46:45.801Z,19.39
2018-11-11T00:47:45.781Z,19.39
2018-11-11T00:48:45.625Z,19.42
2018-11-11T00:49:45.575Z,19.4
2018-11-11T00:50:45.789Z,19.4
2018-11-11T00:51:46.022Z,19.42
2018-11-11T00:52:45.817Z,19.39
2018-11-11T00:53:46.173Z,19.37
2018-11-11T00:54:45.696Z,19.37
2018-11-11T00:55:45.743Z,19.39
2018-11-11T00:56:45.960Z,19.4
2018-11-11T00:57:45.754Z,19.39
2018-11-11T00:58:45.460Z,19.4
2018-11-11T00:59:45.705Z,19.37
2018-11-11T01:00:45.640Z,19.39
2018-11-11T01:01:45.826Z,19.39
2018-11-11T01:02:45.581Z,19.39
2018-11-11T01:03:45.641Z,19.37
2018-11-11T01:04:45.738Z,19.37
2018-11-11T01:05:45.909Z,19.35
2018-11-11T01:06:45.465Z,19.37
2018-11-11T01:07:45.664Z,19.36
2018-11-11T01:08:45.687Z,19.39
2018-11-11T01:09:45.615Z,19.35
2018-11-11T01:10:45.777Z,19.36
2018-11-11T01:11:45.811Z,19.36
2018-11-11T01:12:46.127Z,19.36
2018-11-11T01:13:45.743Z,19.37
2018-11-11T01:14:45.722Z,19.35
2018-11-11T01:15:45.651Z,19.39
2018-11-11T01:16:45.719Z,19.35
2018-11-11T01:17:45.780Z,19.37
2018-11-11T01:18:45.963Z,19.35
2018-11-11T01:19:45.999Z,19.35
2018-11-11T01:20:45.544Z,19.35
2018-11-11T01:21:45.905Z,19.35
2018-11-11T01:22:46.333Z,19.36
2018-11-11T01:23:46.034Z,19.37
2018-11-11T01:24:45.919Z,19.35
2018-11-11T01:25:45.824Z,19.35
2018-11-11T01:26:45.856Z,19.33
2018-11-11T01:27:45.599Z,19.35
2018-11-11T01:28:46.013Z,19.35
2018-11-11T01:29:46.065Z,19.33
2018-11-11T01:30:45.711Z,19.32
2018-11-11T01:31:45.528Z,19.32
2018-11-11T01:32:45.773Z,19.33
2018-11-11T01:33:45.977Z,19.33
2018-11-11T01:34:45.476Z,19.35
2018-11-11T01:35:45.674Z,19.32
2018-11-11T01:36:45.632Z,19.35
2018-11-11T01:37:45.463Z,19.33
2018-11-11T01:38:45.679Z,19.35
2018-11-11T01:39:45.673Z,19.33
2018-11-11T01:40:45.815Z,19.35
2018-11-11T01:41:45.699Z,19.33
2018-11-11T01:42:46.534Z,19.33
2018-11-11T01:43:45.645Z,19.33
2018-11-11T01:44:45.563Z,19.33
2018-11-11T01:45:45.592Z,19.32
2018-11-11T01:46:45.469Z,19.32
2018-11-11T01:47:46.025Z,19.33
2018-11-11T01:48:45.535Z,19.35
2018-11-11T01:49:45.651Z,19.33
2018-11-11T01:50:45.694Z,19.32
2018-11-11T01:51:45.630Z,19.33
2018-11-11T01:52:45.570Z,19.35
2018-11-11T01:53:45.506Z,19.35
2018-11-11T01:54:45.616Z,19.33
2018-11-11T01:55:45.655Z,19.3
2018-11-11T01:56:45.667Z,19.32
2018-11-11T01:57:45.731Z,19.32
2018-11-11T01:58:45.700Z,19.32
2018-11-11T01:59:46.178Z,19.33
2018-11-11T02:00:45.556Z,19.33
2018-11-11T02:01:45.637Z,19.3
2018-11-11T02:02:45.828Z,19.32
2018-11-11T02:03:45.900Z,19.32
2018-11-11T02:04:45.925Z,19.32
2018-11-11T02:05:45.592Z,19.32
2018-11-11T02:06:45.494Z,19.3
2018-11-11T02:07:45.720Z,19.32
2018-11-11T02:08:45.694Z,19.3
2018-11-11T02:09:46.765Z,19.29
2018-11-11T02:10:45.471Z,19.32
2018-11-11T02:11:45.486Z,19.3
2018-11-11T02:12:45.741Z,19.3
2018-11-11T02:13:45.780Z,19.29
2018-11-11T02:14:45.729Z,19.3
2018-11-11T02:15:45.558Z,19.3
2018-11-11T02:16:45.888Z,19.3
2018-11-11T02:17:46.142Z,19.29
2018-11-11T02:18:45.643Z,19.29
2018-11-11T02:19:45.383Z,19.26
2018-11-11T02:20:45.532Z,19.3
2018-11-11T02:21:46.866Z,19.3
2018-11-11T02:22:46.171Z,19.29
2018-11-11T02:23:45.755Z,19.29
2018-11-11T02:24:45.777Z,19.3
2018-11-11T02:25:45.879Z,19.3
2018-11-11T02:26:45.727Z,19.3
2018-11-11T02:27:45.787Z,19.3
2018-11-11T02:28:45.481Z,19.3
2018-11-11T02:29:45.488Z,19.3
2018-11-11T02:30:45.787Z,19.29
2018-11-11T02:31:45.786Z,19.27
2018-11-11T02:32:45.627Z,19.27
2018-11-11T02:33:45.805Z,19.29
2018-11-11T02:34:45.525Z,19.3
2018-11-11T02:35:46.043Z,19.26
2018-11-11T02:36:45.746Z,19.29
2018-11-11T02:37:47.136Z,19.27
2018-11-11T02:38:45.514Z,19.29
2018-11-11T02:39:46.082Z,19.26
2018-11-11T02:40:45.955Z,19.29
2018-11-11T02:41:45.624Z,19.29
2018-11-11T02:42:45.793Z,19.27
2018-11-11T02:43:45.821Z,19.29
2018-11-11T02:44:45.784Z,19.27
2018-11-11T02:45:45.503Z,19.26
2018-11-11T02:46:45.416Z,19.3
2018-11-11T02:47:45.892Z,19.29
2018-11-11T02:48:46.063Z,19.26
2018-11-11T02:49:45.876Z,19.27
2018-11-11T02:50:45.560Z,19.26
2018-11-11T02:51:45.948Z,19.26
2018-11-11T02:52:45.813Z,19.27
2018-11-11T02:53:45.802Z,19.27
2018-11-11T02:54:45.516Z,19.27
2018-11-11T02:55:45.398Z,19.27
2018-11-11T02:56:45.511Z,19.26
2018-11-11T02:57:45.684Z,19.26
2018-11-11T02:58:45.597Z,19.26
2018-11-11T02:59:45.903Z,19.26
2018-11-11T03:00:45.946Z,19.26
2018-11-11T03:01:45.965Z,19.25
2018-11-11T03:02:45.787Z,19.26
2018-11-11T03:03:45.549Z,19.25
2018-11-11T03:04:45.501Z,19.26
2018-11-11T03:05:45.774Z,19.27
2018-11-11T03:06:45.707Z,19.26
2018-11-11T03:07:45.855Z,19.25
2018-11-11T03:08:45.914Z,19.26
2018-11-11T03:09:45.594Z,19.26
2018-11-11T03:10:45.683Z,19.25
2018-11-11T03:11:45.502Z,19.26
2018-11-11T03:12:45.568Z,19.23
2018-11-11T03:13:45.488Z,19.22
2018-11-11T03:14:45.639Z,19.26
2018-11-11T03:15:45.583Z,19.23
2018-11-11T03:16:45.601Z,19.23
2018-11-11T03:17:45.845Z,19.22
2018-11-11T03:18:45.563Z,19.26
2018-11-11T03:19:45.658Z,19.23
2018-11-11T03:20:45.761Z,19.26
2018-11-11T03:21:45.647Z,19.22
2018-11-11T03:22:45.483Z,19.25
2018-11-11T03:23:45.487Z,19.25
2018-11-11T03:24:45.667Z,19.25
2018-11-11T03:25:45.594Z,19.25
2018-11-11T03:26:45.739Z,19.23
2018-11-11T03:27:45.559Z,19.23
2018-11-11T03:28:45.644Z,19.19
2018-11-11T03:29:45.573Z,19.23
2018-11-11T03:30:45.638Z,19.22
2018-11-11T03:31:45.718Z,19.22
2018-11-11T03:32:45.723Z,19.22
2018-11-11T03:33:45.954Z,19.22
2018-11-11T03:34:45.749Z,19.22
2018-11-11T03:35:45.616Z,19.22
2018-11-11T03:36:45.438Z,19.22
2018-11-11T03:37:45.571Z,19.22
2018-11-11T03:38:45.556Z,19.19
2018-11-11T03:39:45.791Z,19.2
2018-11-11T03:40:45.465Z,19.23
2018-11-11T03:41:45.516Z,19.23
2018-11-11T03:42:46.081Z,19.2
2018-11-11T03:43:45.548Z,19.2
2018-11-11T03:44:45.732Z,19.23
2018-11-11T03:45:45.463Z,19.2
2018-11-11T03:46:45.694Z,19.2
2018-11-11T03:47:45.839Z,19.23
2018-11-11T03:48:45.870Z,19.22
2018-11-11T03:49:45.364Z,19.22
2018-11-11T03:50:45.580Z,19.22
2018-11-11T03:51:45.766Z,19.2
2018-11-11T03:52:45.640Z,19.19
2018-11-11T03:53:45.676Z,19.19
2018-11-11T03:54:45.538Z,19.2
2018-11-11T03:55:45.656Z,19.2
2018-11-11T03:56:45.904Z,19.22
2018-11-11T03:57:45.615Z,19.2
2018-11-11T03:58:46.856Z,19.2
2018-11-11T03:59:45.987Z,19.2
2018-11-11T04:00:45.933Z,19.19
2018-11-11T04:01:45.559Z,19.18
2018-11-11T04:02:45.714Z,19.18
2018-11-11T04:03:45.427Z,19.2
2018-11-11T04:04:45.945Z,19.2
2018-11-11T04:05:45.471Z,19.22
2018-11-11T04:06:45.907Z,19.19
2018-11-11T04:07:45.564Z,19.2
2018-11-11T04:08:46.022Z,19.2
2018-11-11T04:09:46.017Z,19.2
2018-11-11T04:10:45.513Z,19.19
2018-11-11T04:11:45.791Z,19.19
2018-11-11T04:12:45.836Z,19.19
2018-11-11T04:13:46.057Z,19.19
2018-11-11T04:14:45.633Z,19.18
2018-11-11T04:15:45.654Z,19.18
2018-11-11T04:16:45.652Z,19.13
2018-11-11T04:17:45.860Z,19.18
2018-11-11T04:18:45.728Z,19.18
2018-11-11T04:19:45.556Z,19.2
2018-11-11T04:20:45.460Z,19.19
2018-11-11T04:21:45.979Z,19.18
2018-11-11T04:22:45.650Z,19.19
2018-11-11T04:23:45.614Z,19.19
2018-11-11T04:24:45.739Z,19.19
2018-11-11T04:25:45.443Z,19.18
2018-11-11T04:26:45.926Z,19.19
2018-11-11T04:27:45.517Z,19.18
2018-11-11T04:28:45.644Z,19.19
2018-11-11T04:29:45.737Z,19.19
2018-11-11T04:30:45.788Z,19.19
2018-11-11T04:31:45.769Z,19.19
2018-11-11T04:32:45.596Z,19.19
2018-11-11T04:33:45.894Z,19.2
2018-11-11T04:34:45.495Z,19.18
2018-11-11T04:35:45.641Z,19.2
2018-11-11T04:36:45.599Z,19.18
2018-11-11T04:37:45.546Z,19.19
2018-11-11T04:38:45.471Z,19.2
2018-11-11T04:39:45.473Z,19.19
2018-11-11T04:40:45.673Z,19.2
2018-11-11T04:41:45.723Z,19.16
2018-11-11T04:42:45.679Z,19.18
2018-11-11T04:43:45.417Z,19.16
2018-11-11T04:44:45.613Z,19.16
2018-11-11T04:45:45.599Z,19.16
2018-11-11T04:46:45.858Z,19.16
2018-11-11T04:47:45.532Z,19.19
2018-11-11T04:48:45.601Z,19.16
2018-11-11T04:49:45.757Z,19.16
2018-11-11T04:50:45.441Z,19.19
2018-11-11T04:51:45.604Z,19.18
2018-11-11T04:52:46.007Z,19.16
2018-11-11T04:53:45.618Z,19.16
2018-11-11T04:54:45.391Z,19.15
2018-11-11T04:55:45.746Z,19.15
2018-11-11T04:56:45.394Z,19.16
2018-11-11T04:57:45.377Z,19.16
2018-11-11T04:58:45.638Z,19.16
2018-11-11T04:59:45.611Z,19.16
2018-11-11T05:00:45.885Z,19.18
2018-11-11T05:01:45.414Z,19.16
2018-11-11T05:02:45.872Z,19.18
2018-11-11T05:03:45.442Z,19.18
2018-11-11T05:04:47.287Z,19.19
2018-11-11T05:05:45.802Z,19.22
2018-11-11T05:06:45.387Z,19.22
2018-11-11T05:07:45.753Z,19.2
2018-11-11T05:08:45.371Z,19.2
2018-11-11T05:09:45.528Z,19.23
2018-11-11T05:10:45.773Z,19.23
2018-11-11T05:11:45.461Z,19.25
2018-11-11T05:12:45.684Z,19.25
2018-11-11T05:13:45.755Z,19.27
2018-11-11T05:14:45.662Z,19.27
2018-11-11T05:15:45.349Z,19.27
2018-11-11T05:16:45.647Z,19.29
2018-11-11T05:17:45.527Z,19.32
2018-11-11T05:18:45.568Z,19.27
2018-11-11T05:19:45.361Z,19.3
2018-11-11T05:20:45.564Z,19.33
2018-11-11T05:21:47.241Z,19.35
2018-11-11T05:22:45.754Z,19.33
2018-11-11T05:23:46.117Z,19.36
2018-11-11T05:24:45.511Z,19.39
2018-11-11T05:25:45.583Z,19.4
2018-11-11T05:26:45.698Z,19.45
2018-11-11T05:27:45.753Z,19.43
2018-11-11T05:28:45.742Z,19.43
2018-11-11T05:29:45.585Z,19.46
2018-11-11T05:30:46.205Z,19.46
2018-11-11T05:31:45.827Z,19.49
2018-11-11T05:32:45.582Z,19.5
2018-11-11T05:33:45.668Z,19.49
2018-11-11T05:34:45.598Z,19.5
2018-11-11T05:35:45.406Z,19.54
2018-11-11T05:36:45.481Z,19.52
2018-11-11T05:37:45.633Z,19.54
2018-11-11T05:38:45.925Z,19.54
2018-11-11T05:39:45.611Z,19.58
2018-11-11T05:40:45.425Z,19.6
2018-11-11T05:41:46.048Z,19.58
2018-11-11T05:42:46.955Z,19.57
2018-11-11T05:43:45.908Z,19.63
2018-11-11T05:44:45.712Z,19.63
2018-11-11T05:45:45.836Z,19.61
2018-11-11T05:46:45.346Z,19.63
2018-11-11T05:47:45.324Z,19.67
2018-11-11T05:48:45.647Z,19.65
2018-11-11T05:49:45.584Z,19.68
2018-11-11T05:50:45.666Z,19.65
2018-11-11T05:51:45.351Z,19.68
2018-11-11T05:52:46.104Z,19.71
2018-11-11T05:53:45.418Z,19.73
2018-11-11T05:54:45.444Z,19.71
2018-11-11T05:55:45.617Z,19.71
2018-11-11T05:56:45.542Z,19.71
2018-11-11T05:57:45.564Z,19.74
2018-11-11T05:58:45.526Z,19.75
2018-11-11T05:59:45.967Z,19.77
2018-11-11T06:00:45.541Z,19.75
2018-11-11T06:01:45.769Z,19.75
2018-11-11T06:02:45.856Z,19.78
2018-11-11T06:03:45.572Z,19.77
2018-11-11T06:04:45.348Z,19.77
2018-11-11T06:05:45.701Z,19.77
2018-11-11T06:06:45.910Z,19.75
2018-11-11T06:07:45.519Z,19.8
2018-11-11T06:08:45.648Z,19.78
2018-11-11T06:09:45.369Z,19.78
2018-11-11T06:10:45.619Z,19.8
2018-11-11T06:11:45.405Z,19.8
2018-11-11T06:12:45.800Z,19.82
2018-11-11T06:13:45.677Z,19.8
2018-11-11T06:14:45.321Z,19.82
2018-11-11T06:15:45.658Z,19.8
2018-11-11T06:16:46.175Z,19.85
2018-11-11T06:17:45.604Z,19.82
2018-11-11T06:18:45.520Z,19.8
2018-11-11T06:19:45.513Z,19.81
2018-11-11T06:20:45.412Z,19.81
2018-11-11T06:21:45.585Z,19.81
2018-11-11T06:22:45.615Z,19.85
2018-11-11T06:23:45.521Z,19.84
2018-11-11T06:24:45.629Z,19.85
2018-11-11T06:25:45.497Z,19.84
2018-11-11T06:26:45.613Z,19.85
2018-11-11T06:27:45.509Z,19.85
2018-11-11T06:28:46.105Z,19.85
2018-11-11T06:29:45.451Z,19.85
2018-11-11T06:30:45.659Z,19.82
2018-11-11T06:31:45.369Z,19.86
2018-11-11T06:32:45.340Z,19.86
2018-11-11T06:33:45.473Z,19.85
2018-11-11T06:34:45.760Z,19.85
2018-11-11T06:35:45.934Z,19.84
2018-11-11T06:36:45.820Z,19.84
2018-11-11T06:37:45.681Z,19.84
2018-11-11T06:38:45.523Z,19.82
2018-11-11T06:39:45.883Z,19.85
2018-11-11T06:40:45.825Z,19.84
2018-11-11T06:41:45.349Z,19.84
2018-11-11T06:42:45.340Z,19.84
2018-11-11T06:43:45.856Z,19.84
2018-11-11T06:44:45.578Z,19.82
2018-11-11T06:45:45.775Z,19.82
2018-11-11T06:46:45.821Z,19.84
2018-11-11T06:47:45.425Z,19.84
2018-11-11T06:48:45.641Z,19.84
2018-11-11T06:49:45.750Z,19.85
2018-11-11T06:50:45.328Z,19.85
2018-11-11T06:51:45.567Z,19.85
2018-11-11T06:52:45.568Z,19.85
2018-11-11T06:53:45.644Z,19.82
2018-11-11T06:54:45.737Z,19.84
2018-11-11T06:55:45.773Z,19.84
2018-11-11T06:56:45.617Z,19.82
2018-11-11T06:57:45.792Z,19.82
2018-11-11T06:58:45.780Z,19.84
2018-11-11T06:59:45.561Z,19.84
2018-11-11T07:00:45.397Z,19.82
2018-11-11T07:01:45.745Z,19.82
2018-11-11T07:02:45.642Z,19.81
2018-11-11T07:03:45.708Z,19.81
2018-11-11T07:04:46.049Z,19.82
2018-11-11T07:05:45.547Z,19.84
2018-11-11T07:06:45.436Z,19.78
2018-11-11T07:07:45.352Z,19.81
2018-11-11T07:08:45.335Z,19.8
2018-11-11T07:09:45.549Z,19.8
2018-11-11T07:10:45.656Z,19.82
2018-11-11T07:11:45.984Z,19.8
2018-11-11T07:12:45.491Z,19.77
2018-11-11T07:13:46.420Z,19.78
2018-11-11T07:14:45.375Z,19.8
2018-11-11T07:15:45.914Z,19.77
2018-11-11T07:16:45.338Z,19.81
2018-11-11T07:17:45.478Z,19.78
2018-11-11T07:18:45.817Z,19.77
2018-11-11T07:19:45.563Z,19.77
2018-11-11T07:20:45.383Z,19.8
2018-11-11T07:21:45.521Z,19.77
2018-11-11T07:22:45.937Z,19.78
2018-11-11T07:23:46.984Z,19.77
2018-11-11T07:24:45.413Z,19.78
2018-11-11T07:25:45.290Z,19.78
2018-11-11T07:26:45.555Z,19.75
2018-11-11T07:27:45.880Z,19.75
2018-11-11T07:28:45.801Z,19.77
2018-11-11T07:29:45.852Z,19.75
2018-11-11T07:30:45.504Z,19.77
2018-11-11T07:31:45.931Z,19.75
2018-11-11T07:32:45.333Z,19.75
2018-11-11T07:33:45.720Z,19.74
2018-11-11T07:34:45.336Z,19.77
2018-11-11T07:35:45.890Z,19.73
2018-11-11T07:36:46.047Z,19.75
2018-11-11T07:37:45.395Z,19.75
2018-11-11T07:38:45.529Z,19.75
2018-11-11T07:39:45.543Z,19.75
2018-11-11T07:40:45.558Z,19.75
2018-11-11T07:41:45.595Z,19.77
2018-11-11T07:42:45.486Z,19.77
2018-11-11T07:43:45.316Z,19.71
2018-11-11T07:44:45.376Z,19.74
2018-11-11T07:45:45.438Z,19.74
2018-11-11T07:46:45.414Z,19.74
2018-11-11T07:47:46.561Z,19.74
2018-11-11T07:48:45.446Z,19.73
2018-11-11T07:49:45.450Z,19.73
2018-11-11T07:50:45.349Z,19.74
2018-11-11T07:51:45.956Z,19.74
2018-11-11T07:52:45.414Z,19.75
2018-11-11T07:53:45.427Z,19.74
2018-11-11T07:54:46.397Z,19.71
2018-11-11T07:55:45.580Z,19.73
2018-11-11T07:56:45.516Z,19.74
2018-11-11T07:57:45.472Z,19.74
2018-11-11T07:58:45.535Z,19.73
2018-11-11T07:59:45.405Z,19.73
2018-11-11T08:00:45.753Z,19.73
2018-11-11T08:01:46.935Z,19.75
2018-11-11T08:02:45.747Z,19.74
2018-11-11T08:03:45.698Z,19.73
2018-11-11T08:04:45.740Z,19.75
2018-11-11T08:05:45.538Z,19.74
2018-11-11T08:06:45.351Z,19.73
2018-11-11T08:07:45.431Z,19.73
2018-11-11T08:08:45.773Z,19.75
2018-11-11T08:09:45.547Z,19.74
2018-11-11T08:10:45.908Z,19.74
2018-11-11T08:11:45.425Z,19.73
2018-11-11T08:12:45.569Z,19.74
2018-11-11T08:13:45.520Z,19.75
2018-11-11T08:14:45.852Z,19.73
2018-11-11T08:15:45.718Z,19.74
2018-11-11T08:16:46.478Z,19.74
2018-11-11T08:17:45.294Z,19.74
2018-11-11T08:18:46.201Z,19.74
2018-11-11T08:19:45.375Z,19.74
2018-11-11T08:20:45.334Z,19.73
2018-11-11T08:21:45.544Z,19.74
2018-11-11T08:22:45.504Z,19.75
2018-11-11T08:23:45.741Z,19.74
2018-11-11T08:24:45.411Z,19.74
2018-11-11T08:25:45.441Z,19.75
2018-11-11T08:26:45.431Z,19.74
2018-11-11T08:27:45.891Z,19.75
2018-11-11T08:28:45.788Z,19.75
2018-11-11T08:29:45.242Z,19.75
2018-11-11T08:30:45.740Z,19.77
2018-11-11T08:31:45.753Z,19.74
2018-11-11T08:32:45.541Z,19.75
2018-11-11T08:33:45.444Z,19.75
2018-11-11T08:34:45.664Z,19.77
2018-11-11T08:35:45.466Z,19.74
2018-11-11T08:36:45.754Z,19.75
2018-11-11T08:37:45.611Z,19.75
2018-11-11T08:38:45.284Z,19.75
2018-11-11T08:39:45.998Z,19.73
2018-11-11T08:40:45.434Z,19.75
2018-11-11T08:41:45.852Z,19.77
2018-11-11T08:42:45.720Z,19.75
2018-11-11T08:43:45.733Z,19.78
2018-11-11T08:44:45.426Z,19.74
2018-11-11T08:45:45.542Z,19.75
2018-11-11T08:46:45.701Z,19.74
2018-11-11T08:47:45.246Z,19.77
2018-11-11T08:48:45.630Z,19.75
2018-11-11T08:49:45.488Z,19.77
2018-11-11T08:50:45.611Z,19.77
2018-11-11T08:51:45.882Z,19.74
2018-11-11T08:52:45.688Z,19.8
2018-11-11T08:53:45.506Z,19.78
2018-11-11T08:54:45.945Z,19.77
2018-11-11T08:55:45.417Z,19.75
2018-11-11T08:56:45.235Z,19.75
2018-11-11T08:57:46.221Z,19.77
2018-11-11T08:58:45.412Z,19.77
2018-11-11T08:59:45.584Z,19.77
2018-11-11T09:00:45.549Z,19.77
2018-11-11T09:01:45.416Z,19.77
2018-11-11T09:02:45.360Z,19.78
2018-11-11T09:03:45.667Z,19.75
2018-11-11T09:04:45.836Z,19.77
2018-11-11T09:05:45.279Z,19.78
2018-11-11T09:06:45.844Z,19.77
2018-11-11T09:07:45.682Z,19.78
2018-11-11T09:08:45.786Z,19.78
2018-11-11T09:09:45.811Z,19.78
2018-11-11T09:10:45.623Z,19.8
2018-11-11T09:11:45.403Z,19.78
2018-11-11T09:12:45.490Z,19.77
2018-11-11T09:13:45.314Z,19.81
2018-11-11T09:14:45.326Z,19.75
2018-11-11T09:15:45.430Z,19.75
2018-11-11T09:16:45.454Z,19.78
2018-11-11T09:17:45.598Z,19.81
2018-11-11T09:18:45.506Z,19.78
2018-11-11T09:19:45.319Z,19.8
2018-11-11T09:20:45.591Z,19.77
2018-11-11T09:21:45.515Z,19.78
2018-11-11T09:22:45.388Z,19.78
2018-11-11T09:23:46.763Z,19.8
2018-11-11T09:24:45.697Z,19.77
2018-11-11T09:25:45.704Z,19.75
2018-11-11T09:26:45.341Z,19.78
2018-11-11T09:27:45.383Z,19.8
2018-11-11T09:28:45.631Z,19.8
2018-11-11T09:29:47.805Z,19.81
2018-11-11T09:30:45.438Z,19.77
2018-11-11T09:31:45.700Z,19.78
2018-11-11T09:32:45.484Z,19.8
2018-11-11T09:33:45.584Z,19.75
2018-11-11T09:34:45.409Z,19.77
2018-11-11T09:35:45.273Z,19.77
2018-11-11T09:36:45.670Z,19.78
2018-11-11T09:37:45.597Z,19.78
2018-11-11T09:38:46.038Z,19.8
2018-11-11T09:39:45.835Z,19.77
2018-11-11T09:40:45.319Z,19.78
2018-11-11T09:41:45.921Z,19.8
2018-11-11T09:42:45.386Z,19.78
2018-11-11T09:43:45.313Z,19.8
2018-11-11T09:44:45.357Z,19.78
2018-11-11T09:45:45.772Z,19.78
2018-11-11T09:46:45.515Z,19.78
2018-11-11T09:47:46.634Z,19.8
2018-11-11T09:48:45.554Z,19.77
2018-11-11T09:49:45.458Z,19.81
2018-11-11T09:50:45.675Z,19.78
2018-11-11T09:51:45.991Z,19.77
2018-11-11T09:52:46.753Z,19.8
2018-11-11T09:53:45.807Z,19.8
2018-11-11T09:54:45.502Z,19.8
2018-11-11T09:55:45.900Z,19.8
2018-11-11T09:56:45.836Z,19.78
2018-11-11T09:57:45.884Z,19.77
2018-11-11T09:58:46.752Z,19.8
2018-11-11T09:59:46.723Z,19.78
2018-11-11T10:00:45.799Z,19.77
2018-11-11T10:01:45.711Z,19.78
2018-11-11T10:02:45.428Z,19.78
2018-11-11T10:03:45.595Z,19.78
2018-11-11T10:04:46.332Z,19.81
2018-11-11T10:05:45.490Z,19.78
2018-11-11T10:06:47.382Z,19.8
2018-11-11T10:07:46.136Z,19.8
2018-11-11T10:08:45.525Z,19.8
2018-11-11T10:09:45.700Z,19.81
2018-11-11T10:10:45.283Z,19.78
2018-11-11T10:11:45.495Z,19.81
2018-11-11T10:12:45.910Z,19.81
2018-11-11T10:13:45.454Z,19.8
2018-11-11T10:14:45.723Z,19.8
2018-11-11T10:15:45.455Z,19.77
2018-11-11T10:16:45.414Z,19.81
2018-11-11T10:17:45.307Z,19.81
2018-11-11T10:18:45.701Z,19.78
2018-11-11T10:19:45.730Z,19.81
2018-11-11T10:20:46.565Z,19.8
2018-11-11T10:21:45.745Z,19.78
2018-11-11T10:22:45.319Z,19.81
2018-11-11T10:23:45.503Z,19.81
2018-11-11T10:24:45.316Z,19.8
2018-11-11T10:25:45.474Z,19.8
2018-11-11T10:26:45.418Z,19.77
2018-11-11T10:27:45.368Z,19.77
2018-11-11T10:28:45.693Z,19.8
2018-11-11T10:29:46.085Z,19.81
2018-11-11T10:30:45.737Z,19.78
2018-11-11T10:31:45.487Z,19.81
2018-11-11T10:32:45.491Z,19.84
2018-11-11T10:33:45.235Z,19.84
2018-11-11T10:34:45.608Z,19.86
2018-11-11T10:35:45.852Z,19.84
2018-11-11T10:36:45.550Z,19.89
2018-11-11T10:37:45.364Z,19.89
2018-11-11T10:38:45.492Z,19.89
2018-11-11T10:39:45.393Z,19.92
2018-11-11T10:40:45.853Z,19.92
2018-11-11T10:41:45.473Z,19.93
2018-11-11T10:42:45.536Z,19.93
2018-11-11T10:43:45.328Z,19.95
2018-11-11T10:44:45.408Z,19.95
2018-11-11T10:45:45.237Z,19.95
2018-11-11T10:46:45.696Z,19.96
2018-11-11T10:47:45.331Z,19.95
2018-11-11T10:48:45.339Z,19.96
2018-11-11T10:49:45.316Z,19.98
2018-11-11T10:50:45.407Z,20.01
2018-11-11T10:51:45.233Z,20.07
2018-11-11T10:52:45.460Z,20.07
2018-11-11T10:53:46.030Z,20.08
2018-11-11T10:54:45.399Z,20.07
2018-11-11T10:55:45.463Z,20.08
2018-11-11T10:56:45.408Z,20.09
2018-11-11T10:57:45.419Z,20.07
2018-11-11T10:58:45.556Z,20.08
2018-11-11T10:59:45.763Z,20.08
2018-11-11T11:00:45.195Z,20.08
2018-11-11T11:01:45.448Z,20.08
2018-11-11T11:02:45.457Z,20.11
2018-11-11T11:03:45.324Z,20.08
2018-11-11T11:04:45.601Z,20.09
2018-11-11T11:05:45.259Z,20.12
2018-11-11T11:06:45.719Z,20.12
2018-11-11T11:07:45.652Z,20.13
2018-11-11T11:08:45.389Z,20.15
2018-11-11T11:09:45.323Z,20.13
2018-11-11T11:10:45.830Z,20.15
2018-11-11T11:11:45.750Z,20.13
2018-11-11T11:12:45.355Z,20.15
2018-11-11T11:13:46.812Z,20.13
2018-11-11T11:14:45.232Z,20.13
2018-11-11T11:15:45.364Z,20.16
2018-11-11T11:16:45.899Z,20.18
2018-11-11T11:17:45.649Z,20.16
2018-11-11T11:18:45.604Z,20.18
2018-11-11T11:19:45.853Z,20.19
2018-11-11T11:20:46.072Z,20.2
2018-11-11T11:21:45.279Z,20.2
2018-11-11T11:22:46.282Z,20.18
2018-11-11T11:23:45.345Z,20.22
2018-11-11T11:24:45.318Z,20.19
2018-11-11T11:25:46.912Z,20.2
2018-11-11T11:26:45.429Z,20.22
2018-11-11T11:27:45.429Z,20.2
2018-11-11T11:28:46.155Z,20.18
2018-11-11T11:29:45.455Z,20.18
2018-11-11T11:30:45.438Z,20.2
2018-11-11T11:31:48.097Z,20.23
2018-11-11T11:32:45.783Z,20.2
2018-11-11T11:33:45.502Z,20.2
2018-11-11T11:34:45.636Z,20.22
2018-11-11T11:35:47.356Z,20.22
2018-11-11T11:36:45.385Z,20.2
2018-11-11T11:37:45.637Z,20.22
2018-11-11T11:38:45.258Z,20.22
2018-11-11T11:39:45.442Z,20.22
2018-11-11T11:40:45.697Z,20.26
2018-11-11T11:41:45.682Z,20.27
2018-11-11T11:42:45.581Z,20.26
2018-11-11T11:43:45.401Z,20.25
2018-11-11T11:44:45.944Z,20.26
2018-11-11T11:45:45.990Z,20.23
2018-11-11T11:46:45.715Z,20.26
2018-11-11T11:47:45.944Z,20.26
2018-11-11T11:48:45.351Z,20.25
2018-11-11T11:49:46.047Z,20.25
2018-11-11T11:50:45.863Z,20.26
2018-11-11T11:51:46.394Z,20.25
2018-11-11T11:52:46.030Z,20.27
2018-11-11T11:53:45.866Z,20.26
2018-11-11T11:54:45.499Z,20.27
2018-11-11T11:55:45.521Z,20.27
2018-11-11T11:56:45.218Z,20.27
2018-11-11T11:57:45.435Z,20.27
2018-11-11T11:58:45.726Z,20.29
2018-11-11T11:59:45.265Z,20.29
2018-11-11T12:00:45.555Z,20.3
2018-11-11T12:01:45.603Z,20.29
2018-11-11T12:02:45.756Z,20.3
2018-11-11T12:03:45.545Z,20.32
2018-11-11T12:04:45.401Z,20.3
2018-11-11T12:05:45.240Z,20.3
2018-11-11T12:06:45.700Z,20.32
2018-11-11T12:07:45.674Z,20.3
2018-11-11T12:08:47.231Z,20.3
2018-11-11T12:09:45.298Z,20.32
2018-11-11T12:10:45.515Z,20.32
2018-11-11T12:11:45.948Z,20.32
2018-11-11T12:12:46.024Z,20.33
2018-11-11T12:13:45.286Z,20.33
2018-11-11T12:14:45.712Z,20.33
2018-11-11T12:15:45.345Z,20.33
2018-11-11T12:16:46.772Z,20.3
2018-11-11T12:17:45.211Z,20.3
2018-11-11T12:18:45.434Z,20.29
2018-11-11T12:19:45.605Z,20.3
2018-11-11T12:20:45.547Z,20.32
2018-11-11T12:21:45.212Z,20.29
2018-11-11T12:22:45.552Z,20.32
2018-11-11T12:23:45.253Z,20.3
2018-11-11T12:24:45.283Z,20.29
2018-11-11T12:25:45.491Z,20.27
2018-11-11T12:26:45.428Z,20.3
2018-11-11T12:27:45.370Z,20.29
2018-11-11T12:28:45.310Z,20.29
2018-11-11T12:29:45.471Z,20.27
2018-11-11T12:30:46.341Z,20.26
2018-11-11T12:31:45.748Z,20.25
2018-11-11T12:32:45.322Z,20.26
2018-11-11T12:33:45.327Z,20.26
2018-11-11T12:34:45.374Z,20.25
2018-11-11T12:35:45.434Z,20.26
2018-11-11T12:36:45.801Z,20.25
2018-11-11T12:37:45.403Z,20.25
2018-11-11T12:38:45.738Z,20.25
2018-11-11T12:39:47.109Z,20.23
2018-11-11T12:40:45.277Z,20.22
2018-11-11T12:41:45.590Z,20.22
2018-11-11T12:42:45.547Z,20.2
2018-11-11T12:43:45.372Z,20.22
2018-11-11T12:44:46.250Z,20.2
2018-11-11T12:45:45.438Z,20.22
2018-11-11T12:46:46.665Z,20.19
2018-11-11T12:47:45.404Z,20.18
2018-11-11T12:48:45.876Z,20.18
2018-11-11T12:49:45.811Z,20.16
2018-11-11T12:50:45.497Z,20.19
2018-11-11T12:51:45.584Z,20.18
2018-11-11T12:52:45.395Z,20.16
2018-11-11T12:53:45.372Z,20.18
2018-11-11T12:54:46.015Z,20.16
2018-11-11T12:55:46.200Z,20.15
2018-11-11T12:56:45.240Z,20.15